Time;durP1;ratioP1;P1;durP2;ratioP2;P2;SDS_P1;SDS_P2;PMS_P1;PMS_P2;Temp;Humidity;BMP_temperature;BMP_pressure;BME280_temperature;BME280_humidity;BME280_pressure;Samples;Min_cycle;Max_cycle;Signal;HPM_P1;HPM_P2
2020/12/06 00:00:16;;;;;;;49.03;28.48;;;0.90;99.90;;;;;;5054568;28;20454;-67
2020/12/06 00:02:42;;;;;;;54.75;31.30;;;0.80;99.90;;;;;;5054713;28;20055;-67
2020/12/06 00:05:08;;;;;;;53.88;31.10;;;0.90;99.90;;;;;;5054428;28;20455;-67
2020/12/06 00:07:54;;;;;;;52.47;30.05;;;0.80;99.90;;;;;;5053929;28;20048;-67
2020/12/06 00:10:20;;;;;;;52.45;30.52;;;0.70;99.90;;;;;;5054498;28;20409;-67
2020/12/06 00:12:46;;;;;;;59.40;30.85;;;0.60;99.90;;;;;;5054385;28;20136;-67
2020/12/06 00:15:32;;;;;;;73.13;34.90;;;0.50;99.90;;;;;;5053244;28;20047;-66
2020/12/06 00:17:59;;;;;;;61.97;35.45;;;0.40;99.90;;;;;;5054218;28;20077;-67
2020/12/06 00:20:44;;;;;;;62.13;36.55;;;0.40;99.90;;;;;;5053552;28;20056;-67
2020/12/06 00:23:11;;;;;;;59.63;33.67;;;0.50;99.90;;;;;;5053063;28;20044;-67
2020/12/06 00:25:37;;;;;;;62.13;33.70;;;0.50;99.90;;;;;;5054146;28;20111;-67
2020/12/06 00:28:03;;;;;;;66.35;34.97;;;0.50;99.90;;;;;;5053998;28;20049;-67
2020/12/06 00:30:28;;;;;;;62.05;34.20;;;0.50;99.90;;;;;;5054046;28;20114;-67
2020/12/06 00:32:54;;;;;;;60.13;33.95;;;0.60;99.90;;;;;;5054353;28;20502;-67
2020/12/06 00:35:20;;;;;;;59.70;34.53;;;0.70;99.90;;;;;;5053844;28;20047;-66
2020/12/06 00:37:46;;;;;;;52.25;31.13;;;0.70;99.90;;;;;;5054258;28;20099;-67
2020/12/06 00:40:32;;;;;;;59.15;32.60;;;0.70;99.90;;;;;;5052686;28;20504;-67
2020/12/06 00:42:58;;;;;;;58.88;32.97;;;0.70;99.90;;;;;;5053845;28;20041;-67
2020/12/06 00:45:23;;;;;;;52.75;31.65;;;0.80;99.90;;;;;;5053627;28;20045;-67
2020/12/06 00:48:09;;;;;;;55.45;33.03;;;0.80;99.90;;;;;;5053047;28;20053;-67
2020/12/06 00:50:35;;;;;;;52.35;30.70;;;0.80;99.90;;;;;;5053794;28;20045;-68
2020/12/06 00:53:01;;;;;;;53.58;29.65;;;0.80;99.90;;;;;;5053540;28;20049;-67
2020/12/06 00:55:26;;;;;;;57.75;32.00;;;0.80;99.90;;;;;;5053601;28;20045;-67
2020/12/06 00:57:52;;;;;;;52.75;30.30;;;0.70;99.90;;;;;;5053370;28;20481;-68
2020/12/06 01:00:38;;;;;;;61.03;30.48;;;0.70;99.90;;;;;;5052749;28;20044;-67
2020/12/06 01:03:04;;;;;;;49.58;29.98;;;0.60;99.90;;;;;;5053363;28;20507;-66
2020/12/06 01:05:29;;;;;;;53.00;30.35;;;0.60;99.90;;;;;;5053431;28;20520;-66
2020/12/06 01:07:55;;;;;;;52.78;31.17;;;0.60;99.90;;;;;;5052844;28;20542;-66
2020/12/06 01:10:21;;;;;;;53.00;29.67;;;0.60;99.90;;;;;;5053106;28;20550;-65
2020/12/06 01:12:47;;;;;;;56.50;31.05;;;0.60;99.90;;;;;;5053211;28;20052;-65
2020/12/06 01:15:12;;;;;;;53.38;30.77;;;0.60;99.90;;;;;;5053195;28;20044;-65
2020/12/06 01:17:38;;;;;;;60.67;32.85;;;0.60;99.90;;;;;;5053480;28;20045;-65
2020/12/06 01:20:25;;;;;;;56.72;31.63;;;0.60;99.90;;;;;;5052234;28;20051;-65
2020/12/06 01:23:10;;;;;;;59.25;31.15;;;0.50;99.90;;;;;;5052278;28;20135;-65
2020/12/06 01:25:36;;;;;;;58.25;30.75;;;0.50;99.90;;;;;;5052982;28;20473;-65
2020/12/06 01:28:02;;;;;;;59.25;30.45;;;0.40;99.90;;;;;;5053169;28;20125;-65
2020/12/06 01:30:47;;;;;;;63.53;32.60;;;0.40;99.90;;;;;;5052225;28;20076;-66
2020/12/06 01:33:33;;;;;;;63.53;32.15;;;0.40;99.90;;;;;;5051846;28;20503;-65
2020/12/06 01:35:59;;;;;;;58.78;34.03;;;0.30;99.90;;;;;;5052955;28;20055;-65
2020/12/06 01:38:25;;;;;;;68.35;34.22;;;0.30;99.90;;;;;;5052954;28;20072;-65
2020/12/06 01:40:51;;;;;;;68.15;34.88;;;0.20;99.90;;;;;;5053000;28;20045;-65
2020/12/06 01:43:17;;;;;;;64.40;32.88;;;0.20;99.90;;;;;;5052869;28;20095;-66
2020/12/06 01:45:43;;;;;;;60.33;33.50;;;0.30;99.90;;;;;;5052807;28;20052;-65
2020/12/06 01:48:09;;;;;;;65.40;34.17;;;0.30;99.90;;;;;;5052996;28;20060;-66
2020/12/06 01:50:39;;;;;;;64.07;34.95;;;0.30;99.90;;;;;;5053007;28;20103;-65
2020/12/06 01:53:25;;;;;;;68.90;36.85;;;0.30;99.90;;;;;;5051891;28;20107;-65
2020/12/06 01:56:11;;;;;;;67.30;35.60;;;0.30;99.90;;;;;;5052014;28;20408;-66
2020/12/06 01:58:37;;;;;;;64.35;33.97;;;0.30;99.90;;;;;;5052846;28;20041;-65
2020/12/06 02:01:23;;;;;;;67.85;33.38;;;0.30;99.90;;;;;;5052064;28;20049;-65
2020/12/06 02:03:53;;;;;;;62.88;34.50;;;0.30;99.90;;;;;;5052634;28;20053;-65
2020/12/06 02:06:39;;;;;;;68.28;34.58;;;0.30;99.90;;;;;;5051763;28;20083;-65
2020/12/06 02:09:04;;;;;;;65.13;31.33;;;0.30;99.90;;;;;;5052661;28;20045;-65
2020/12/06 02:11:33;;;;;;;68.80;35.47;;;0.30;99.90;;;;;;5052694;28;20485;-65
2020/12/06 02:13:59;;;;;;;67.40;35.55;;;0.30;99.90;;;;;;5052395;28;20053;-65
2020/12/06 02:16:25;;;;;;;69.63;36.30;;;0.20;99.90;;;;;;5052649;28;20562;-65
2020/12/06 02:19:11;;;;;;;68.22;35.28;;;0.20;99.90;;;;;;5052083;28;20140;-65
2020/12/06 02:21:57;;;;;;;69.43;35.40;;;0.20;99.90;;;;;;5051753;28;20053;-65
2020/12/06 02:24:43;;;;;;;76.10;36.85;;;0.20;99.90;;;;;;5051417;28;20144;-65
2020/12/06 02:27:09;;;;;;;73.40;38.95;;;0.10;99.90;;;;;;5052445;28;20076;-66
2020/12/06 02:29:54;;;;;;;73.95;37.67;;;0.10;99.90;;;;;;5051757;28;20049;-66
2020/12/06 02:32:20;;;;;;;71.75;33.80;;;0.10;99.90;;;;;;5052363;28;20489;-66
2020/12/06 02:34:46;;;;;;;71.90;33.92;;;0.20;99.90;;;;;;5052342;28;20076;-65
2020/12/06 02:37:12;;;;;;;55.50;29.98;;;0.30;99.90;;;;;;5052509;28;20048;-65
2020/12/06 02:39:38;;;;;;;69.15;33.08;;;0.30;99.90;;;;;;5052264;28;20049;-65
2020/12/06 02:42:24;;;;;;;64.45;33.38;;;0.20;99.90;;;;;;5051525;28;20045;-65
2020/12/06 02:44:50;;;;;;;71.30;34.65;;;0.20;99.90;;;;;;5052391;28;20477;-65
2020/12/06 02:47:35;;;;;;;74.72;36.47;;;0.20;99.90;;;;;;5055409;28;20140;-65
2020/12/06 02:50:21;;;;;;;81.88;36.72;;;0.20;99.90;;;;;;5055049;28;20059;-65
2020/12/06 02:53:08;;;;;;;82.30;38.38;;;0.20;99.90;;;;;;5041202;28;20110;-65
2020/12/06 02:55:34;;;;;;;76.60;37.90;;;0.10;99.90;;;;;;5055947;28;20386;-65
2020/12/06 02:57:59;;;;;;;93.57;40.42;;;0.10;99.90;;;;;;5055865;28;20107;-65
2020/12/06 03:00:45;;;;;;;90.53;39.70;;;0.00;99.90;;;;;;5054906;28;20049;-64
2020/12/06 03:03:11;;;;;;;88.22;38.05;;;0.00;99.90;;;;;;5055759;28;20048;-65
2020/12/06 03:05:37;;;;;;;86.07;40.53;;;0.00;99.90;;;;;;5055665;28;20044;-65
2020/12/06 03:08:03;;;;;;;84.20;38.55;;;0.00;99.90;;;;;;5055812;28;20056;-65
2020/12/06 03:10:29;;;;;;;82.75;37.47;;;0.00;99.90;;;;;;5055638;28;20051;-65
2020/12/06 03:12:54;;;;;;;86.18;39.47;;;0.00;99.90;;;;;;5054358;28;20066;-66
2020/12/06 03:15:40;;;;;;;95.25;42.35;;;0.00;99.90;;;;;;5040760;28;20542;-65
2020/12/06 03:18:26;;;;;;;89.53;40.80;;;0.00;99.90;;;;;;5054753;28;20139;-65
2020/12/06 03:20:52;;;;;;;88.03;40.78;;;-0.10;99.90;;;;;;5054188;28;20591;-65
2020/12/06 03:23:38;;;;;;;96.40;40.63;;;-0.10;99.90;;;;;;5054365;28;20049;-66
2020/12/06 03:26:04;;;;;;;92.32;42.75;;;-0.10;99.90;;;;;;5055458;28;20099;-65
2020/12/06 03:28:29;;;;;;;95.10;40.42;;;-0.10;99.90;;;;;;5055243;28;20407;-65
2020/12/06 03:30:55;;;;;;;87.68;38.28;;;0.00;99.90;;;;;;5055255;28;20098;-66
2020/12/06 03:33:21;;;;;;;78.97;39.58;;;0.00;99.90;;;;;;5055134;28;20565;-65
2020/12/06 03:35:47;;;;;;;83.18;38.15;;;-0.10;99.90;;;;;;5055292;28;20055;-65
2020/12/06 03:38:12;;;;;;;83.82;40.78;;;-0.10;99.90;;;;;;5055153;28;20116;-65
2020/12/06 03:40:38;;;;;;;84.30;40.22;;;0.00;99.90;;;;;;5055103;28;20544;-65
2020/12/06 03:43:04;;;;;;;84.63;36.50;;;0.00;99.90;;;;;;5054937;28;20041;-65
2020/12/06 03:45:30;;;;;;;85.85;40.67;;;0.00;99.90;;;;;;5054996;28;20488;-65
2020/12/06 03:47:55;;;;;;;76.32;39.35;;;0.00;99.90;;;;;;5054981;28;20047;-65
2020/12/06 03:50:23;;;;;;;93.80;42.47;;;0.00;99.90;;;;;;5054858;28;20465;-65
2020/12/06 03:52:49;;;;;;;87.72;40.00;;;0.00;99.90;;;;;;5054779;28;20114;-65
2020/12/06 03:55:15;;;;;;;92.40;41.80;;;0.10;99.90;;;;;;5054774;28;20045;-65
2020/12/06 03:57:41;;;;;;;81.30;37.78;;;0.10;99.90;;;;;;5054313;28;20483;-65
2020/12/06 04:00:07;;;;;;;87.93;40.78;;;0.20;99.90;;;;;;5054679;28;20064;-64
2020/12/06 04:02:52;;;;;;;79.25;38.60;;;0.10;99.90;;;;;;5053863;28;20044;-65
2020/12/06 04:05:20;;;;;;;91.32;39.95;;;0.10;99.90;;;;;;5054637;28;20053;-65
2020/12/06 04:08:06;;;;;;;83.65;33.97;;;0.00;99.90;;;;;;5053776;28;20148;-65
2020/12/06 04:10:31;;;;;;;79.47;36.75;;;0.10;99.90;;;;;;5054719;28;20116;-65
2020/12/06 04:12:57;;;;;;;85.15;37.53;;;0.20;99.90;;;;;;5054454;28;20045;-65
2020/12/06 04:15:23;;;;;;;85.72;37.47;;;0.20;99.90;;;;;;5054402;28;20052;-65
2020/12/06 04:17:49;;;;;;;76.88;34.92;;;0.20;99.90;;;;;;5054422;28;20048;-64
2020/12/06 04:20:14;;;;;;;86.93;38.45;;;0.20;99.90;;;;;;5054141;28;20190;-65
2020/12/06 04:22:40;;;;;;;74.25;31.08;;;0.30;99.90;;;;;;5054407;28;20056;-65
2020/12/06 04:25:26;;;;;;;76.88;35.50;;;0.30;99.90;;;;;;5039594;28;20053;-65
2020/12/06 04:27:52;;;;;;;85.13;39.05;;;0.30;99.90;;;;;;5054279;28;20052;-65
2020/12/06 04:30:39;;;;;;;84.93;37.15;;;0.30;99.90;;;;;;5053286;28;20086;-64
2020/12/06 04:33:05;;;;;;;90.35;39.67;;;0.30;99.90;;;;;;5054034;28;20074;-65
2020/12/06 04:35:50;;;;;;;92.90;39.60;;;0.30;99.90;;;;;;5053047;28;20053;-64
2020/12/06 04:38:36;;;;;;;95.10;41.53;;;0.30;99.90;;;;;;5053009;28;20049;-65
2020/12/06 04:41:02;;;;;;;100.72;41.60;;;0.30;99.90;;;;;;5053842;28;20523;-65
2020/12/06 04:43:29;;;;;;;94.40;41.88;;;0.30;99.90;;;;;;5053899;28;20033;-65
2020/12/06 04:45:56;;;;;;;93.78;41.13;;;0.30;99.90;;;;;;5053663;28;20045;-66
2020/12/06 04:49:03;;;;;;;98.28;41.03;;;0.30;99.90;;;;;;5052962;28;20045;-65
2020/12/06 04:51:37;;;;;;;96.50;41.63;;;0.40;99.90;;;;;;5053576;28;20053;-65
2020/12/06 04:54:06;;;;;;;90.93;39.85;;;0.30;99.90;;;;;;5053666;28;20049;-65
2020/12/06 04:56:32;;;;;;;100.32;41.45;;;0.30;99.90;;;;;;5053292;28;20083;-65
2020/12/06 04:58:59;;;;;;;90.47;40.95;;;0.30;99.90;;;;;;5053623;28;20064;-65
2020/12/06 05:01:48;;;;;;;118.78;45.85;;;0.30;99.90;;;;;;5052522;28;20045;-65
2020/12/06 05:04:15;;;;;;;102.38;45.38;;;0.30;99.90;;;;;;5053305;28;20045;-65
2020/12/06 05:07:02;;;;;;;100.85;44.08;;;0.30;99.90;;;;;;5052677;28;20423;-65
2020/12/06 05:09:33;;;;;;;98.97;42.10;;;0.30;99.90;;;;;;5052770;28;20060;-65
2020/12/06 05:12:00;;;;;;;101.28;41.72;;;0.30;99.90;;;;;;5053422;28;20080;-65
2020/12/06 05:14:25;;;;;;;98.97;39.90;;;0.20;99.90;;;;;;5053222;28;20045;-66
2020/12/06 05:16:54;;;;;;;99.93;39.42;;;0.20;99.90;;;;;;5053279;28;20128;-65
2020/12/06 05:19:24;;;;;;;99.47;43.75;;;0.30;99.90;;;;;;5053494;28;20047;-65
2020/12/06 05:21:50;;;;;;;95.13;42.20;;;0.20;99.90;;;;;;5053166;28;20119;-65
2020/12/06 05:24:16;;;;;;;113.20;44.42;;;0.20;99.90;;;;;;5053125;28;20447;-65
2020/12/06 05:27:02;;;;;;;110.05;44.38;;;0.20;99.90;;;;;;5052225;28;20420;-65
2020/12/06 05:29:29;;;;;;;105.70;43.78;;;0.10;99.90;;;;;;5053216;28;20052;-66
2020/12/06 05:31:56;;;;;;;104.30;43.17;;;0.10;99.90;;;;;;5053142;28;20551;-65
2020/12/06 05:34:41;;;;;;;115.25;44.80;;;0.00;99.90;;;;;;5052043;28;20055;-65
2020/12/06 05:37:07;;;;;;;119.05;46.88;;;-0.10;99.90;;;;;;5051822;28;20123;-65
2020/12/06 05:40:02;;;;;;;118.57;48.78;;;-0.10;99.90;;;;;;5052331;28;20049;-65
2020/12/06 05:42:28;;;;;;;153.68;48.15;;;-0.10;99.90;;;;;;5052904;28;20068;-66
2020/12/06 05:44:57;;;;;;;120.85;46.20;;;-0.10;99.90;;;;;;5052868;28;20079;-65
2020/12/06 05:47:23;;;;;;;123.38;50.78;;;-0.20;99.90;;;;;;5052803;28;20055;-65
2020/12/06 05:49:49;;;;;;;142.00;52.70;;;-0.10;99.90;;;;;;5051683;28;20059;-66
2020/12/06 05:52:20;;;;;;;154.73;54.35;;;-0.20;99.90;;;;;;5052819;28;20045;-66
2020/12/06 05:54:48;;;;;;;126.35;49.60;;;-0.10;99.90;;;;;;5052665;28;20045;-65
2020/12/06 05:57:33;;;;;;;126.32;48.53;;;-0.10;99.90;;;;;;5051605;28;20483;-66
2020/12/06 06:00:20;;;;;;;142.57;49.42;;;-0.10;99.90;;;;;;5051995;28;20076;-66
2020/12/06 06:03:07;;;;;;;136.15;52.65;;;-0.20;99.90;;;;;;5051912;28;20053;-65
2020/12/06 06:05:54;;;;;;;185.77;57.58;;;-0.20;99.90;;;;;;5051929;28;20056;-66
2020/12/06 06:08:24;;;;;;;149.20;55.42;;;-0.20;99.90;;;;;;5052754;28;20072;-65
2020/12/06 06:11:24;;;;;;;136.90;54.50;;;-0.20;99.90;;;;;;5052667;28;20037;-66
2020/12/06 06:14:01;;;;;;;156.93;56.10;;;-0.20;99.90;;;;;;5052608;28;20052;-66
2020/12/06 06:16:29;;;;;;;145.93;54.03;;;-0.10;99.90;;;;;;5052458;28;20056;-66
2020/12/06 06:18:56;;;;;;;146.93;54.92;;;0.00;99.90;;;;;;5052583;28;20052;-66
2020/12/06 06:21:44;;;;;;;147.43;55.92;;;0.10;99.90;;;;;;5055240;28;20052;-66
2020/12/06 06:24:23;;;;;;;142.82;47.58;;;0.30;99.90;;;;;;5056557;28;20449;-65
2020/12/06 06:26:51;;;;;;;126.57;46.50;;;0.40;99.90;;;;;;5056487;28;20045;-66
2020/12/06 06:29:37;;;;;;;126.95;48.67;;;0.40;99.90;;;;;;5055321;28;20049;-66
2020/12/06 06:32:03;;;;;;;118.20;45.63;;;0.50;99.90;;;;;;5056394;28;20128;-66
2020/12/06 06:34:33;;;;;;;114.20;42.92;;;0.40;99.90;;;;;;5056232;28;20053;-66
2020/12/06 06:36:59;;;;;;;118.30;47.10;;;0.40;99.90;;;;;;5056196;28;20377;-66
2020/12/06 06:39:26;;;;;;;114.15;45.42;;;0.40;99.90;;;;;;5056281;28;20075;-66
2020/12/06 06:42:00;;;;;;;118.53;44.78;;;0.40;99.90;;;;;;5056084;28;20103;-65
2020/12/06 06:44:28;;;;;;;116.85;47.20;;;0.40;99.90;;;;;;5055922;28;20102;-65
2020/12/06 06:47:02;;;;;;;106.20;44.55;;;0.40;99.90;;;;;;5056014;28;20049;-66
2020/12/06 06:49:59;;;;;;;100.22;41.92;;;0.40;99.90;;;;;;5055221;28;20052;-65
2020/12/06 06:52:27;;;;;;;108.22;42.20;;;0.40;99.90;;;;;;5056164;28;20481;-65
2020/12/06 06:55:12;;;;;;;100.28;42.67;;;0.50;99.90;;;;;;5054948;28;20485;-66
2020/12/06 06:57:41;;;;;;;91.78;42.33;;;0.50;99.90;;;;;;5055800;28;20060;-65
2020/12/06 07:00:08;;;;;;;89.97;40.70;;;0.50;99.90;;;;;;5056067;28;20123;-66
2020/12/06 07:02:54;;;;;;;96.85;43.03;;;0.50;99.90;;;;;;5055041;28;20107;-65
2020/12/06 07:05:21;;;;;;;99.45;42.20;;;0.50;99.90;;;;;;5055695;28;20385;-66
2020/12/06 07:07:54;;;;;;;109.53;42.70;;;0.60;99.90;;;;;;5055943;28;20400;-65
2020/12/06 07:10:21;;;;;;;94.90;41.65;;;0.60;99.90;;;;;;5055643;28;20412;-65
2020/12/06 07:12:55;;;;;;;90.80;41.58;;;0.60;99.90;;;;;;5055582;28;20073;-66
2020/12/06 07:15:23;;;;;;;99.00;41.00;;;0.50;99.90;;;;;;5055475;28;20045;-66
2020/12/06 07:18:08;;;;;;;89.22;38.75;;;0.50;99.90;;;;;;5054702;28;20049;-66
2020/12/06 07:20:34;;;;;;;77.20;35.17;;;0.40;99.90;;;;;;5055616;28;20056;-66
2020/12/06 07:23:20;;;;;;;83.70;37.05;;;0.30;99.90;;;;;;5054859;28;20052;-66
2020/12/06 07:26:06;;;;;;;78.75;36.97;;;0.30;99.90;;;;;;5054191;28;20053;-66
2020/12/06 07:28:52;;;;;;;80.07;35.20;;;0.30;99.90;;;;;;5054583;28;20064;-65
2020/12/06 07:31:18;;;;;;;80.55;37.47;;;0.30;99.90;;;;;;5054611;28;20049;-66
2020/12/06 07:33:44;;;;;;;80.03;34.08;;;0.20;99.90;;;;;;5055248;28;20048;-66
2020/12/06 07:36:34;;;;;;;83.25;37.47;;;0.20;99.90;;;;;;5054128;28;20416;-66
2020/12/06 07:39:13;;;;;;;92.30;39.53;;;0.10;99.90;;;;;;5055296;28;20144;-66
2020/12/06 07:41:58;;;;;;;97.78;37.75;;;0.10;99.90;;;;;;5054269;28;20052;-66
2020/12/06 07:44:24;;;;;;;92.60;38.65;;;0.10;99.90;;;;;;5054951;28;20459;-65
2020/12/06 07:47:00;;;;;;;87.72;38.65;;;0.10;99.90;;;;;;5054934;28;20128;-66
2020/12/06 07:49:26;;;;;;;102.97;42.58;;;0.00;99.90;;;;;;5054690;28;20049;-66
2020/12/06 07:51:51;;;;;;;108.05;43.03;;;0.00;99.90;;;;;;5054747;28;20099;-67
2020/12/06 07:54:17;;;;;;;100.45;40.30;;;0.00;99.90;;;;;;5054832;28;20488;-66
2020/12/06 07:57:05;;;;;;;102.50;40.67;;;0.00;99.90;;;;;;5053696;28;20114;-66
2020/12/06 07:59:35;;;;;;;97.45;40.42;;;0.00;99.90;;;;;;5054657;28;20102;-66
2020/12/06 08:02:02;;;;;;;115.95;43.00;;;-0.10;99.90;;;;;;5054603;28;20041;-66
2020/12/06 08:04:34;;;;;;;121.03;44.47;;;0.00;99.90;;;;;;5054651;28;20072;-66
2020/12/06 08:07:20;;;;;;;116.82;47.63;;;0.00;99.90;;;;;;5054667;28;20041;-67
2020/12/06 08:09:47;;;;;;;99.78;41.28;;;0.00;99.90;;;;;;5054526;28;20140;-67
2020/12/06 08:12:35;;;;;;;124.82;48.05;;;0.00;99.90;;;;;;5053289;28;20562;-66
2020/12/06 08:15:05;;;;;;;121.50;47.97;;;0.00;99.90;;;;;;5053927;28;20045;-66
2020/12/06 08:17:48;;;;;;;100.80;43.33;;;0.10;99.90;;;;;;5034257;28;20155;-66
2020/12/06 08:20:18;;;;;;;113.07;45.33;;;0.20;99.90;;;;;;5034447;28;20049;-66
2020/12/06 08:22:59;;;;;;;114.72;45.60;;;0.30;99.90;;;;;;5034139;28;20076;-65
2020/12/06 08:25:28;;;;;;;112.65;41.45;;;0.30;99.90;;;;;;5034229;28;20045;-66
2020/12/06 08:27:55;;;;;;;113.07;43.85;;;0.30;99.90;;;;;;5034405;28;20052;-65
2020/12/06 08:30:23;;;;;;;118.35;43.38;;;0.40;99.90;;;;;;5034147;28;20052;-66
2020/12/06 08:33:01;;;;;;;107.07;43.75;;;0.40;99.90;;;;;;5034116;28;20532;-66
2020/12/06 08:35:56;;;;;;;116.65;43.88;;;0.40;99.90;;;;;;5034052;28;20095;-66
2020/12/06 08:38:30;;;;;;;111.40;45.13;;;0.50;99.90;;;;;;5037655;28;20054;-66
2020/12/06 08:41:07;;;;;;;114.10;43.50;;;0.60;99.90;;;;;;5034123;28;20052;-66
2020/12/06 08:44:03;;;;;;;97.93;42.85;;;0.60;99.90;;;;;;5032802;28;20052;-65
2020/12/06 08:46:30;;;;;;;102.80;40.55;;;0.70;99.90;;;;;;5033867;28;20520;-67
2020/12/06 08:48:59;;;;;;;104.13;44.28;;;0.70;99.90;;;;;;5034010;28;20045;-67
2020/12/06 08:51:51;;;;;;;110.32;44.28;;;0.80;99.90;;;;;;5032714;28;20489;-67
2020/12/06 08:54:37;;;;;;;107.45;45.40;;;0.80;99.90;;;;;;5032723;28;20053;-66
2020/12/06 08:57:10;;;;;;;106.10;44.17;;;0.90;99.90;;;;;;5033598;28;20049;-66
2020/12/06 08:59:37;;;;;;;115.40;46.90;;;0.90;99.90;;;;;;5033587;28;20046;-66
2020/12/06 09:02:04;;;;;;;94.82;43.45;;;1.00;99.90;;;;;;5033786;28;20048;-66
2020/12/06 09:04:33;;;;;;;87.78;42.00;;;1.10;99.90;;;;;;5033525;28;20485;-66
2020/12/06 09:07:19;;;;;;;93.25;41.67;;;1.10;99.90;;;;;;5032533;28;20513;-66
2020/12/06 09:09:44;;;;;;;92.82;40.92;;;1.10;99.90;;;;;;5033487;28;20073;-66
2020/12/06 09:12:10;;;;;;;79.50;38.05;;;1.20;99.90;;;;;;5033382;28;20107;-66
2020/12/06 09:14:37;;;;;;;83.20;39.58;;;1.20;99.90;;;;;;5032156;28;20045;-66
2020/12/06 09:17:22;;;;;;;81.10;38.88;;;1.30;99.90;;;;;;5037942;28;20041;-66
2020/12/06 09:19:48;;;;;;;80.13;37.92;;;1.30;99.90;;;;;;5053172;28;20044;-65
2020/12/06 09:22:14;;;;;;;102.47;44.08;;;1.40;99.90;;;;;;5052118;28;20412;-65
2020/12/06 09:24:40;;;;;;;98.10;46.25;;;1.40;99.90;;;;;;5053220;28;20040;-66
2020/12/06 09:27:05;;;;;;;89.60;44.05;;;1.40;99.90;;;;;;5053162;28;20045;-66
2020/12/06 09:29:31;;;;;;;70.50;37.63;;;1.50;99.90;;;;;;5051764;28;20115;-65
2020/12/06 09:31:57;;;;;;;66.20;35.50;;;1.50;99.90;;;;;;5051445;28;20041;-64
2020/12/06 09:34:23;;;;;;;69.05;35.10;;;1.50;99.90;;;;;;5051933;28;20506;-65
2020/12/06 09:36:49;;;;;;;70.30;35.10;;;1.60;99.90;;;;;;5052509;28;20068;-65
2020/12/06 09:39:15;;;;;;;60.45;33.33;;;1.60;99.90;;;;;;5052962;28;20119;-65
2020/12/06 09:41:47;;;;;;;70.28;33.78;;;1.60;99.90;;;;;;5051123;28;20072;-65
2020/12/06 09:44:13;;;;;;;64.72;34.85;;;1.70;99.90;;;;;;5051220;28;20045;-65
2020/12/06 09:46:39;;;;;;;66.32;35.22;;;1.70;99.90;;;;;;5052199;28;20075;-65
2020/12/06 09:49:05;;;;;;;69.30;35.17;;;1.70;99.90;;;;;;5051340;28;20559;-65
2020/12/06 09:51:30;;;;;;;71.00;37.70;;;1.80;99.90;;;;;;5051994;28;20489;-65
2020/12/06 09:54:16;;;;;;;61.45;34.20;;;1.90;99.90;;;;;;5050023;28;20090;-65
2020/12/06 09:56:42;;;;;;;53.10;31.25;;;1.90;99.90;;;;;;5058574;28;20061;-73
2020/12/06 09:59:08;;;;;;;64.32;35.47;;;2.00;99.90;;;;;;5054831;28;20079;-63
2020/12/06 10:01:33;;;;;;;56.33;32.25;;;2.10;99.90;;;;;;5070463;28;20071;-68
2020/12/06 10:04:19;;;;;;;59.15;32.17;;;2.20;99.90;;;;;;5045179;28;20045;-70
2020/12/06 10:06:45;;;;;;;52.72;30.95;;;2.30;99.90;;;;;;5058749;28;20547;-64
2020/12/06 10:09:31;;;;;;;51.28;30.67;;;2.30;99.90;;;;;;5057946;28;20048;-64
2020/12/06 10:11:57;;;;;;;51.60;31.05;;;2.20;99.90;;;;;;5058483;28;20140;-64
2020/12/06 10:14:22;;;;;;;52.33;30.75;;;2.50;99.90;;;;;;5058795;28;20552;-63
2020/12/06 10:16:48;;;;;;;55.08;31.27;;;2.40;99.90;;;;;;5058516;28;20132;-65
2020/12/06 10:19:14;;;;;;;50.72;30.88;;;2.60;99.90;;;;;;5058717;28;20409;-64
2020/12/06 10:21:40;;;;;;;53.33;32.03;;;2.70;99.90;;;;;;5058730;28;20566;-65
2020/12/06 10:24:05;;;;;;;54.35;31.42;;;2.70;99.90;;;;;;5058703;28;20102;-64
2020/12/06 10:26:31;;;;;;;48.30;30.75;;;2.80;99.90;;;;;;5058957;28;20473;-64
2020/12/06 10:28:58;;;;;;;50.78;29.73;;;2.80;99.90;;;;;;5058689;28;20080;-64
2020/12/06 10:31:24;;;;;;;45.25;28.33;;;2.80;99.90;;;;;;5058664;28;20045;-65
2020/12/06 10:33:50;;;;;;;46.13;28.80;;;2.90;99.90;;;;;;5058643;28;20048;-65
2020/12/06 10:36:16;;;;;;;48.65;28.67;;;2.90;99.90;;;;;;5058685;28;20064;-65
2020/12/06 10:38:42;;;;;;;50.30;29.83;;;3.00;99.90;;;;;;5058468;28;20051;-65
2020/12/06 10:41:09;;;;;;;53.28;30.65;;;3.00;99.90;;;;;;5058607;28;20447;-65
2020/12/06 10:43:35;;;;;;;49.85;31.05;;;3.10;99.90;;;;;;5058696;28;20408;-65
2020/12/06 10:46:01;;;;;;;54.40;32.80;;;3.20;99.90;;;;;;5058601;28;20041;-65
2020/12/06 10:48:47;;;;;;;60.53;36.17;;;3.20;99.90;;;;;;5057774;28;20052;-64
2020/12/06 10:51:12;;;;;;;45.80;28.58;;;3.30;99.90;;;;;;5058529;28;20053;-65
2020/12/06 10:53:38;;;;;;;49.97;30.85;;;3.30;99.90;;;;;;5058381;28;20051;-64
2020/12/06 10:56:04;;;;;;;50.03;30.83;;;3.40;99.90;;;;;;5058601;28;20083;-64
2020/12/06 10:58:30;;;;;;;48.97;31.55;;;3.50;99.90;;;;;;5058542;28;20091;-64
2020/12/06 11:00:55;;;;;;;52.03;31.63;;;3.50;99.90;;;;;;5058318;28;20056;-65
2020/12/06 11:03:21;;;;;;;55.65;32.45;;;3.60;99.90;;;;;;5058543;28;20409;-65
2020/12/06 11:05:47;;;;;;;48.58;30.05;;;3.70;99.90;;;;;;5057118;28;20045;-65
2020/12/06 11:08:33;;;;;;;45.33;29.55;;;3.80;99.90;;;;;;5054267;28;20505;-64
2020/12/06 11:10:58;;;;;;;43.25;28.77;;;3.80;99.90;;;;;;5055208;28;20045;-64
2020/12/06 11:13:24;;;;;;;40.42;25.67;;;3.90;99.90;;;;;;5055175;28;20044;-64
2020/12/06 11:15:50;;;;;;;43.63;28.08;;;4.00;99.90;;;;;;5055038;28;20044;-65
2020/12/06 11:18:16;;;;;;;42.03;27.35;;;4.00;99.90;;;;;;5054844;28;20050;-65
2020/12/06 11:20:41;;;;;;;46.30;30.13;;;4.10;99.90;;;;;;5054935;28;20076;-65
2020/12/06 11:23:27;;;;;;;41.88;23.40;;;4.20;99.90;;;;;;5054181;28;20049;-66
2020/12/06 11:25:53;;;;;;;40.15;26.77;;;4.20;99.90;;;;;;5052166;28;20404;-65
2020/12/06 11:28:21;;;;;;;40.45;26.77;;;4.30;99.90;;;;;;5054956;28;20068;-64
2020/12/06 11:30:47;;;;;;;;;;;4.30;99.90;;;;;;5055121;28;20041;-64
2020/12/06 11:33:13;;;;;;;40.97;25.77;;;4.40;99.90;;;;;;5054587;28;19925;-65
2020/12/06 11:35:40;;;;;;;33.05;22.60;;;4.40;99.90;;;;;;5054649;28;20049;-65
2020/12/06 11:38:06;;;;;;;37.58;23.35;;;4.40;99.90;;;;;;5054717;28;20126;-65
2020/12/06 11:40:31;;;;;;;38.92;24.73;;;4.50;99.90;;;;;;5054719;28;20566;-65
2020/12/06 11:43:17;;;;;;;40.95;25.85;;;4.50;99.90;;;;;;5053539;28;20080;-65
2020/12/06 11:45:43;;;;;;;40.38;26.35;;;4.50;99.90;;;;;;5054454;28;20107;-64
2020/12/06 11:48:09;;;;;;;38.50;22.33;;;4.50;99.90;;;;;;5054517;28;20404;-65
2020/12/06 11:50:54;;;;;;;45.55;27.05;;;4.50;99.90;;;;;;5053365;28;20580;-64
2020/12/06 11:53:41;;;;;;;42.25;27.80;;;4.50;99.90;;;;;;5053431;28;20088;-65
2020/12/06 11:56:08;;;;;;;47.53;28.17;;;4.40;99.90;;;;;;5054008;28;20091;-68
2020/12/06 11:58:34;;;;;;;41.70;28.27;;;4.50;99.90;;;;;;5054239;28;20093;-66
2020/12/06 12:00:59;;;;;;;39.97;28.05;;;4.50;99.90;;;;;;5054421;28;20049;-66
2020/12/06 12:03:45;;;;;;;40.35;27.17;;;4.50;99.90;;;;;;5053361;28;20412;-66
2020/12/06 12:06:31;;;;;;;42.40;27.15;;;4.50;99.90;;;;;;5053248;28;20139;-67
2020/12/06 12:09:17;;;;;;;46.55;29.58;;;4.50;99.90;;;;;;5053351;28;20094;-66
2020/12/06 12:11:42;;;;;;;40.97;26.92;;;4.50;99.90;;;;;;5054219;28;20048;-68
2020/12/06 12:14:28;;;;;;;46.22;29.63;;;4.50;99.90;;;;;;5053164;28;20060;-66
2020/12/06 12:16:54;;;;;;;48.97;28.88;;;4.40;99.90;;;;;;5053765;28;20079;-69
2020/12/06 12:19:20;;;;;;;47.42;30.02;;;4.40;99.90;;;;;;5052760;28;20095;-63
2020/12/06 12:21:46;;;;;;;48.13;30.52;;;4.40;99.90;;;;;;5053928;28;20439;-64
2020/12/06 12:24:11;;;;;;;49.58;29.38;;;4.40;99.90;;;;;;5053761;28;20045;-65
2020/12/06 12:26:58;;;;;;;49.63;32.15;;;4.40;99.90;;;;;;5052903;28;20056;-64
2020/12/06 12:29:24;;;;;;;48.72;31.08;;;4.40;99.90;;;;;;5053591;28;20072;-65
2020/12/06 12:31:50;;;;;;;53.33;31.33;;;4.40;99.90;;;;;;5053603;28;20045;-65
2020/12/06 12:34:16;;;;;;;48.85;31.40;;;4.40;99.90;;;;;;5052353;28;20045;-64
2020/12/06 12:36:44;;;;;;;49.50;30.77;;;4.40;99.90;;;;;;5053616;28;20045;-66
2020/12/06 12:39:10;;;;;;;55.92;32.88;;;4.40;99.90;;;;;;5053479;28;20475;-65
2020/12/06 12:41:56;;;;;;;54.25;32.38;;;4.40;99.90;;;;;;5052491;28;20049;-65
2020/12/06 12:44:41;;;;;;;56.35;33.05;;;4.50;99.90;;;;;;5052228;28;20080;-65
2020/12/06 12:47:27;;;;;;;60.42;35.42;;;4.40;99.90;;;;;;5052567;28;20408;-65
2020/12/06 12:49:54;;;;;;;58.30;34.10;;;4.50;99.90;;;;;;5053201;28;20044;-66
2020/12/06 12:52:20;;;;;;;55.13;33.47;;;4.40;99.90;;;;;;5053206;28;20052;-66
2020/12/06 12:54:45;;;;;;;59.95;34.28;;;4.50;99.90;;;;;;5053081;28;20072;-65
2020/12/06 12:57:11;;;;;;;57.10;33.92;;;4.50;99.90;;;;;;5053139;28;20136;-65